Terminal Aerodrome Forecast
Issued by NWS

Home | Current Version | Previous Version | Text Only | Print | Product List | Glossary On
Versions: 1 2 3 4 5 6 7 8 9 10 11 12 13 14 15 16 17 18 19 20 21 22 23 24 25 26 27 28 29 30 31 32 33
067
FTUS41 KOKX 290540
TAFGON
TAF
KGON 290540Z 2906/3006 VRB04KT P6SM SCT150 BKN200
     FM291500 20011G17KT P6SM FEW050 SCT200
     FM292000 20016G22KT P6SM FEW050 SCT250
     FM300000 20019G27KT P6SM FEW050 FEW080
     FM300300 22014G19KT P6SM FEW050 SCT080=

USA.gov is the U.S. government's official web portal to all federal, state and local government web resources and services.